createdAt,value
2019-03-01T00:00:16.989Z,1003.5
2019-03-01T00:01:18.347Z,1003.5
2019-03-01T00:02:19.719Z,1003.5
2019-03-01T00:03:21.086Z,1003.5
2019-03-01T00:04:22.454Z,1003.5
2019-03-01T00:05:23.818Z,1003.5
2019-03-01T00:06:25.191Z,1003.4
2019-03-01T00:07:26.559Z,1003.4
2019-03-01T00:08:27.923Z,1003.4
2019-03-01T00:09:29.292Z,1003.4
2019-03-01T00:10:30.663Z,1003.4
2019-03-01T00:11:32.026Z,1003.4
2019-03-01T00:12:33.407Z,1003.3
2019-03-01T00:13:34.774Z,1003.3
2019-03-01T00:14:36.142Z,1003.3
2019-03-01T00:15:37.514Z,1003.3
2019-03-01T00:16:38.932Z,1003.3
2019-03-01T00:17:40.300Z,1003.3
2019-03-01T00:18:41.671Z,1003.2
2019-03-01T00:19:43.036Z,1003.2
2019-03-01T00:20:44.400Z,1003.3
2019-03-01T00:21:45.776Z,1003.2
2019-03-01T00:22:47.148Z,1003.2
2019-03-01T00:23:48.516Z,1003.2
2019-03-01T00:24:49.878Z,1003.2
2019-03-01T00:25:51.250Z,1003.2
2019-03-01T00:26:52.624Z,1003.2
2019-03-01T00:27:53.991Z,1003.2
2019-03-01T00:28:55.355Z,1003.2
2019-03-01T00:29:56.722Z,1003.2
2019-03-01T00:30:58.087Z,1003.2
2019-03-01T00:31:59.458Z,1003.2
2019-03-01T00:33:00.855Z,1003.2
2019-03-01T00:34:02.198Z,1003.2
2019-03-01T00:35:03.562Z,1003.2
2019-03-01T00:36:04.928Z,1003.2
2019-03-01T00:37:06.301Z,1003.2
2019-03-01T00:38:07.672Z,1003.2
2019-03-01T00:39:09.040Z,1003.2
2019-03-01T00:40:10.427Z,1003.1
2019-03-01T00:41:11.798Z,1003.1
2019-03-01T00:42:13.163Z,1003.1
2019-03-01T00:43:14.530Z,1003.2
2019-03-01T00:44:15.899Z,1003.1
2019-03-01T00:45:17.274Z,1003.1
2019-03-01T00:46:18.636Z,1003.1
2019-03-01T00:47:20.007Z,1003.1
2019-03-01T00:48:21.376Z,1003.0
2019-03-01T00:49:22.736Z,1003.1
2019-03-01T00:50:24.115Z,1003.0
2019-03-01T00:51:25.480Z,1003.1
2019-03-01T00:52:26.846Z,1003.0
2019-03-01T00:53:28.219Z,1003.0
2019-03-01T00:54:29.591Z,1003.0
2019-03-01T00:55:30.986Z,1003.0
2019-03-01T00:56:32.350Z,1003.0
2019-03-01T00:57:33.754Z,1002.9
2019-03-01T00:58:35.090Z,1002.9
2019-03-01T00:59:36.460Z,1003.0
2019-03-01T01:00:37.830Z,1002.9
2019-03-01T01:01:39.257Z,1003.0
2019-03-01T01:02:40.636Z,1002.9
2019-03-01T01:03:42.090Z,1002.9
2019-03-01T01:04:43.590Z,1003.0
2019-03-01T01:05:45.295Z,1002.9
2019-03-01T01:06:46.944Z,1003.0
2019-03-01T01:07:48.766Z,1002.9
2019-03-01T01:08:50.510Z,1002.9
2019-03-01T01:09:52.263Z,1002.9
2019-03-01T01:10:53.919Z,1002.9
2019-03-01T01:11:55.651Z,1002.9
2019-03-01T01:12:57.398Z,1002.8
2019-03-01T01:13:59.069Z,1002.8
2019-03-01T01:15:00.788Z,1002.8
2019-03-01T01:16:02.456Z,1002.7
2019-03-01T01:17:04.133Z,1002.7
2019-03-01T01:18:05.860Z,1002.7
2019-03-01T01:19:07.650Z,1002.7
2019-03-01T01:20:09.336Z,1002.7
2019-03-01T01:21:11.091Z,1002.6
2019-03-01T01:22:12.837Z,1002.7
2019-03-01T01:23:14.550Z,1002.7
2019-03-01T01:24:16.272Z,1002.7
2019-03-01T01:25:18.030Z,1002.6
2019-03-01T01:26:19.714Z,1002.6
2019-03-01T01:27:21.377Z,1002.6
2019-03-01T01:28:23.118Z,1002.6
2019-03-01T01:29:24.506Z,1002.6
2019-03-01T01:30:25.883Z,1002.6
2019-03-01T01:31:27.254Z,1002.6
2019-03-01T01:32:28.619Z,1002.6
2019-03-01T01:33:29.987Z,1002.6
2019-03-01T01:34:31.351Z,1002.5
2019-03-01T01:35:32.725Z,1002.6
2019-03-01T01:36:34.095Z,1002.5
2019-03-01T01:37:35.586Z,1002.5
2019-03-01T01:38:37.180Z,1002.4
2019-03-01T01:39:38.915Z,1002.5
2019-03-01T01:40:40.681Z,1002.5
2019-03-01T01:41:42.308Z,1002.5
2019-03-01T01:42:44.073Z,1002.5
2019-03-01T01:43:45.698Z,1002.5
2019-03-01T01:44:47.491Z,1002.4
2019-03-01T01:45:49.232Z,1002.5
2019-03-01T01:46:50.976Z,1002.5
2019-03-01T01:47:52.567Z,1002.5
2019-03-01T01:48:54.202Z,1002.5
2019-03-01T01:49:55.913Z,1002.4
2019-03-01T01:50:57.547Z,1002.5
2019-03-01T01:51:59.257Z,1002.4
2019-03-01T01:53:00.816Z,1002.4
2019-03-01T01:54:02.556Z,1002.4
2019-03-01T01:55:04.237Z,1002.4
2019-03-01T01:56:05.995Z,1002.4
2019-03-01T01:57:07.740Z,1002.5
2019-03-01T01:58:09.379Z,1002.4
2019-03-01T01:59:11.094Z,1002.4
2019-03-01T02:00:12.742Z,1002.4
2019-03-01T02:01:14.083Z,1002.3
2019-03-01T02:02:15.453Z,1002.4
2019-03-01T02:03:16.824Z,1002.4
2019-03-01T02:04:18.192Z,1002.4
2019-03-01T02:05:19.576Z,1002.4
2019-03-01T02:06:20.951Z,1002.3
2019-03-01T02:07:22.322Z,1002.3
2019-03-01T02:08:23.748Z,1002.3
2019-03-01T02:09:25.261Z,1002.3
2019-03-01T02:10:26.927Z,1002.3
2019-03-01T02:11:28.571Z,1002.3
2019-03-01T02:12:30.241Z,1002.3
2019-03-01T02:13:31.953Z,1002.3
2019-03-01T02:14:33.627Z,1002.3
2019-03-01T02:15:35.320Z,1002.3
2019-03-01T02:16:37.010Z,1002.3
2019-03-01T02:17:38.678Z,1002.3
2019-03-01T02:18:40.356Z,1002.3
2019-03-01T02:19:42.068Z,1002.3
2019-03-01T02:20:43.749Z,1002.3
2019-03-01T02:21:45.160Z,1002.3
2019-03-01T02:22:46.561Z,1002.3
2019-03-01T02:23:47.920Z,1002.2
2019-03-01T02:24:49.296Z,1002.3
2019-03-01T02:25:50.672Z,1002.2
2019-03-01T02:26:52.072Z,1002.2
2019-03-01T02:27:53.450Z,1002.2
2019-03-01T02:28:54.842Z,1002.2
2019-03-01T02:29:56.200Z,1002.2
2019-03-01T02:30:57.593Z,1002.2
2019-03-01T02:31:59.034Z,1002.1
2019-03-01T02:33:00.364Z,1002.2
2019-03-01T02:34:01.756Z,1002.2
2019-03-01T02:35:03.131Z,1002.2
2019-03-01T02:36:04.500Z,1002.2
2019-03-01T02:37:05.871Z,1002.2
2019-03-01T02:38:07.238Z,1002.1
2019-03-01T02:39:08.610Z,1002.2
2019-03-01T02:40:10.031Z,1002.1
2019-03-01T02:41:11.586Z,1002.2
2019-03-01T02:42:13.255Z,1002.1
2019-03-01T02:43:14.932Z,1002.1
2019-03-01T02:44:16.600Z,1002.1
2019-03-01T02:45:18.261Z,1002.1
2019-03-01T02:46:19.938Z,1002.1
2019-03-01T02:47:21.483Z,1002.1
2019-03-01T02:48:23.160Z,1002.2
2019-03-01T02:49:24.884Z,1002.1
2019-03-01T02:50:26.554Z,1002.1
2019-03-01T02:51:28.272Z,1002.1
2019-03-01T02:52:29.774Z,1002.1
2019-03-01T02:53:31.559Z,1002.1
2019-03-01T02:54:33.328Z,1002.1
2019-03-01T02:55:35.180Z,1002.1
2019-03-01T02:56:36.889Z,1002.1
2019-03-01T02:57:38.657Z,1002.1
2019-03-01T02:58:40.360Z,1002.1
2019-03-01T02:59:42.033Z,1002.1
2019-03-01T03:00:43.736Z,1002.1
2019-03-01T03:01:45.399Z,1002.1
2019-03-01T03:02:47.137Z,1002.1
2019-03-01T03:03:48.832Z,1002.1
2019-03-01T03:04:50.600Z,1002.1
2019-03-01T03:05:52.233Z,1002.1
2019-03-01T03:06:53.603Z,1002.1
2019-03-01T03:07:54.988Z,1002.0
2019-03-01T03:08:56.423Z,1002.0
2019-03-01T03:09:58.093Z,1002.0
2019-03-01T03:10:59.918Z,1002.0
2019-03-01T03:12:01.663Z,1002.0
2019-03-01T03:13:03.097Z,1002.0
2019-03-01T03:14:04.465Z,1002.0
2019-03-01T03:15:05.832Z,1001.9
2019-03-01T03:16:07.197Z,1001.9
2019-03-01T03:17:08.566Z,1001.9
2019-03-01T03:18:09.936Z,1001.9
2019-03-01T03:19:11.306Z,1001.9
2019-03-01T03:20:12.675Z,1001.9
2019-03-01T03:21:14.041Z,1001.9
2019-03-01T03:22:15.402Z,1001.9
2019-03-01T03:23:16.774Z,1001.9
2019-03-01T03:24:18.175Z,1001.9
2019-03-01T03:25:19.557Z,1001.9
2019-03-01T03:26:20.931Z,1001.9
2019-03-01T03:27:22.299Z,1001.9
2019-03-01T03:28:23.667Z,1001.9
2019-03-01T03:29:25.056Z,1001.8
2019-03-01T03:30:26.420Z,1001.8
2019-03-01T03:31:27.774Z,1001.8
2019-03-01T03:32:29.144Z,1001.8
2019-03-01T03:33:30.531Z,1001.8
2019-03-01T03:34:31.894Z,1001.8
2019-03-01T03:35:33.247Z,1001.8
2019-03-01T03:36:34.621Z,1001.8
2019-03-01T03:37:36.262Z,1001.8
2019-03-01T03:38:38.064Z,1001.8
2019-03-01T03:39:39.826Z,1001.8
2019-03-01T03:40:41.654Z,1001.8
2019-03-01T03:41:43.366Z,1001.8
2019-03-01T03:42:45.083Z,1001.9
2019-03-01T03:43:46.948Z,1001.9
2019-03-01T03:44:48.655Z,1001.8
2019-03-01T03:45:50.510Z,1001.8
2019-03-01T03:46:52.350Z,1001.8
2019-03-01T03:47:54.301Z,1001.8
2019-03-01T03:48:56.240Z,1001.8
2019-03-01T03:49:58.117Z,1001.8
2019-03-01T03:50:59.880Z,1001.8
2019-03-01T03:52:01.710Z,1001.8
2019-03-01T03:53:03.483Z,1001.8
2019-03-01T03:54:05.243Z,1001.8
2019-03-01T03:55:06.962Z,1001.8
2019-03-01T03:56:08.712Z,1001.8
2019-03-01T03:57:10.430Z,1001.8
2019-03-01T03:58:12.187Z,1001.8
2019-03-01T03:59:13.823Z,1001.8
2019-03-01T04:00:15.578Z,1001.8
2019-03-01T04:01:17.269Z,1001.8
2019-03-01T04:02:18.981Z,1001.7
2019-03-01T04:03:20.624Z,1001.7
2019-03-01T04:04:22.357Z,1001.7
2019-03-01T04:05:24.016Z,1001.7
2019-03-01T04:06:25.695Z,1001.7
2019-03-01T04:07:27.352Z,1001.7
2019-03-01T04:08:29.009Z,1001.7
2019-03-01T04:09:30.760Z,1001.7
2019-03-01T04:10:32.487Z,1001.7
2019-03-01T04:11:34.149Z,1001.7
2019-03-01T04:12:35.865Z,1001.7
2019-03-01T04:13:37.543Z,1001.7
2019-03-01T04:14:39.231Z,1001.7
2019-03-01T04:15:40.900Z,1001.7
2019-03-01T04:16:42.561Z,1001.7
2019-03-01T04:17:44.263Z,1001.7
2019-03-01T04:18:45.940Z,1001.7
2019-03-01T04:19:47.381Z,1001.7
2019-03-01T04:20:48.853Z,1001.7
2019-03-01T04:21:50.264Z,1001.7
2019-03-01T04:22:51.654Z,1001.7
2019-03-01T04:23:53.049Z,1001.7
2019-03-01T04:24:54.439Z,1001.7
2019-03-01T04:25:55.841Z,1001.7
2019-03-01T04:26:57.245Z,1001.7
2019-03-01T04:27:58.650Z,1001.6
2019-03-01T04:29:00.044Z,1001.6
2019-03-01T04:30:01.442Z,1001.6
2019-03-01T04:31:02.948Z,1001.6
2019-03-01T04:32:04.421Z,1001.6
2019-03-01T04:33:05.982Z,1001.6
2019-03-01T04:34:07.415Z,1001.6
2019-03-01T04:35:08.920Z,1001.6
2019-03-01T04:36:10.323Z,1001.6
2019-03-01T04:37:12.378Z,1001.6
2019-03-01T04:38:13.691Z,1001.6
2019-03-01T04:39:15.180Z,1001.6
2019-03-01T04:40:16.733Z,1001.6
2019-03-01T04:41:18.343Z,1001.6
2019-03-01T04:42:19.780Z,1001.6
2019-03-01T04:43:21.333Z,1001.6
2019-03-01T04:44:22.769Z,1001.6
2019-03-01T04:45:24.210Z,1001.6
2019-03-01T04:46:25.781Z,1001.6
2019-03-01T04:47:27.278Z,1001.6
2019-03-01T04:48:28.753Z,1001.6
2019-03-01T04:49:30.406Z,1001.6
2019-03-01T04:50:31.947Z,1001.6
2019-03-01T04:51:39.845Z,1001.6
2019-03-01T04:52:34.780Z,1001.6
2019-03-01T04:53:36.255Z,1001.6
2019-03-01T04:54:37.744Z,1001.6
2019-03-01T04:55:39.179Z,1001.6
2019-03-01T04:56:40.586Z,1001.7
2019-03-01T04:57:42.130Z,1001.6
2019-03-01T04:58:43.778Z,1001.7
2019-03-01T04:59:45.155Z,1001.6
2019-03-01T05:00:46.587Z,1001.6
2019-03-01T05:01:48.086Z,1001.7
2019-03-01T05:02:49.568Z,1001.7
2019-03-01T05:03:51.025Z,1001.6
2019-03-01T05:04:52.428Z,1001.6
2019-03-01T05:05:53.992Z,1001.7
2019-03-01T05:06:55.408Z,1001.7
2019-03-01T05:07:56.913Z,1001.7
2019-03-01T05:08:58.334Z,1001.6
2019-03-01T05:09:59.792Z,1001.7
2019-03-01T05:11:01.282Z,1001.7
2019-03-01T05:12:02.691Z,1001.7
2019-03-01T05:13:04.102Z,1001.7
2019-03-01T05:14:05.546Z,1001.7
2019-03-01T05:15:07.097Z,1001.7
2019-03-01T05:16:08.764Z,1001.7
2019-03-01T05:17:10.290Z,1001.7
2019-03-01T05:18:12.080Z,1001.8
2019-03-01T05:19:14.035Z,1001.8
2019-03-01T05:20:16.165Z,1001.8
2019-03-01T05:21:18.444Z,1001.8
2019-03-01T05:22:20.798Z,1001.8
2019-03-01T05:23:22.860Z,1001.8
2019-03-01T05:24:25.146Z,1001.7
2019-03-01T05:25:27.180Z,1001.7
2019-03-01T05:26:29.304Z,1001.7
2019-03-01T05:27:31.499Z,1001.7
2019-03-01T05:28:33.707Z,1001.7
2019-03-01T05:29:35.888Z,1001.7
2019-03-01T05:30:37.922Z,1001.7
2019-03-01T05:31:40.103Z,1001.7
2019-03-01T05:32:42.181Z,1001.7
2019-03-01T05:33:44.596Z,1001.7
2019-03-01T05:34:46.739Z,1001.7
2019-03-01T05:35:49.113Z,1001.7
2019-03-01T05:36:51.498Z,1001.7
2019-03-01T05:37:53.497Z,1001.7
2019-03-01T05:38:56.389Z,1001.8
2019-03-01T05:39:58.464Z,1001.7
2019-03-01T05:41:00.947Z,1001.8
2019-03-01T05:42:03.453Z,1001.8
2019-03-01T05:43:05.918Z,1001.8
2019-03-01T05:44:08.879Z,1001.8
2019-03-01T05:45:12.525Z,1001.8
2019-03-01T05:46:16.020Z,1001.8
2019-03-01T05:47:18.946Z,1001.8
2019-03-01T05:48:22.409Z,1001.8
2019-03-01T05:49:24.995Z,1001.8
2019-03-01T05:50:27.271Z,1001.8
2019-03-01T05:51:29.546Z,1001.8
2019-03-01T05:52:31.994Z,1001.8
2019-03-01T05:53:34.212Z,1001.7
2019-03-01T05:54:36.437Z,1001.8
2019-03-01T05:55:38.771Z,1001.8
2019-03-01T05:56:41.041Z,1001.8
2019-03-01T05:57:43.407Z,1001.8
2019-03-01T05:58:45.742Z,1001.8
2019-03-01T05:59:47.816Z,1001.8
2019-03-01T06:00:50.167Z,1001.8
2019-03-01T06:01:52.466Z,1001.8
2019-03-01T06:02:54.731Z,1001.8
2019-03-01T06:03:56.881Z,1001.8
2019-03-01T06:04:59.069Z,1001.8
2019-03-01T06:06:01.319Z,1001.8
2019-03-01T06:07:03.541Z,1001.9
2019-03-01T06:08:05.769Z,1001.8
2019-03-01T06:09:08.075Z,1001.9
2019-03-01T06:10:10.343Z,1001.9
2019-03-01T06:11:12.547Z,1001.9
2019-03-01T06:12:14.801Z,1001.9
2019-03-01T06:13:17.048Z,1001.9
2019-03-01T06:14:19.271Z,1001.8
2019-03-01T06:15:21.364Z,1001.9
2019-03-01T06:16:23.498Z,1001.9
2019-03-01T06:17:25.693Z,1001.9
2019-03-01T06:18:27.784Z,1001.9
2019-03-01T06:19:30.258Z,1001.9
2019-03-01T06:20:32.399Z,1002.0
2019-03-01T06:21:34.712Z,1002.0
2019-03-01T06:22:36.873Z,1002.0
2019-03-01T06:23:39.051Z,1002.0
2019-03-01T06:24:41.218Z,1002.0
2019-03-01T06:25:43.352Z,1002.0
2019-03-01T06:26:45.778Z,1002.1
2019-03-01T06:27:47.988Z,1002.0
2019-03-01T06:28:50.343Z,1002.0
2019-03-01T06:29:52.621Z,1002.0
2019-03-01T06:30:54.973Z,1002.0
2019-03-01T06:31:57.282Z,1002.1
2019-03-01T06:32:59.539Z,1002.1
2019-03-01T06:34:01.589Z,1002.1
2019-03-01T06:35:03.778Z,1002.1
2019-03-01T06:36:06.111Z,1002.1
2019-03-01T06:37:08.299Z,1002.1
2019-03-01T06:38:10.377Z,1002.1
2019-03-01T06:39:12.562Z,1002.1
2019-03-01T06:40:14.761Z,1002.1
2019-03-01T06:41:16.913Z,1002.1
2019-03-01T06:42:19.364Z,1002.1
2019-03-01T06:43:21.713Z,1002.1
2019-03-01T06:44:23.989Z,1002.1
2019-03-01T06:45:26.178Z,1002.1
2019-03-01T06:46:28.209Z,1002.2
2019-03-01T06:47:30.416Z,1002.2
2019-03-01T06:48:32.673Z,1002.2
2019-03-01T06:49:34.764Z,1002.2
2019-03-01T06:50:36.981Z,1002.2
2019-03-01T06:51:39.307Z,1002.2
2019-03-01T06:52:41.546Z,1002.2
2019-03-01T06:53:43.670Z,1002.2
2019-03-01T06:54:45.868Z,1002.2
2019-03-01T06:55:47.987Z,1002.2
2019-03-01T06:56:50.143Z,1002.2
2019-03-01T06:57:52.413Z,1002.2
2019-03-01T06:58:54.566Z,1002.1
2019-03-01T06:59:56.709Z,1002.1
2019-03-01T07:00:58.876Z,1002.2
2019-03-01T07:02:02.771Z,1002.2
2019-03-01T07:03:03.422Z,1002.1
2019-03-01T07:04:05.645Z,1002.2
2019-03-01T07:05:07.697Z,1002.2
2019-03-01T07:06:09.910Z,1002.2
2019-03-01T07:07:12.092Z,1002.2
2019-03-01T07:08:14.235Z,1002.2
2019-03-01T07:09:16.372Z,1002.2
2019-03-01T07:10:18.541Z,1002.3
2019-03-01T07:11:20.693Z,1002.3
2019-03-01T07:12:22.855Z,1002.3
2019-03-01T07:13:24.969Z,1002.3
2019-03-01T07:14:27.168Z,1002.3
2019-03-01T07:15:29.326Z,1002.4
2019-03-01T07:16:31.525Z,1002.4
2019-03-01T07:17:33.662Z,1002.4
2019-03-01T07:18:35.807Z,1002.4
2019-03-01T07:19:37.991Z,1002.4
2019-03-01T07:20:40.196Z,1002.4
2019-03-01T07:21:42.436Z,1002.5
2019-03-01T07:22:44.487Z,1002.4
2019-03-01T07:23:46.619Z,1002.4
2019-03-01T07:24:48.819Z,1002.4
2019-03-01T07:25:50.893Z,1002.4
2019-03-01T07:26:53.039Z,1002.4
2019-03-01T07:27:55.141Z,1002.4
2019-03-01T07:28:57.153Z,1002.5
2019-03-01T07:29:59.064Z,1002.4
2019-03-01T07:31:01.045Z,1002.4
2019-03-01T07:32:02.949Z,1002.5
2019-03-01T07:33:04.943Z,1002.5
2019-03-01T07:34:07.003Z,1002.5
2019-03-01T07:35:09.015Z,1002.5
2019-03-01T07:36:11.033Z,1002.6
2019-03-01T07:37:13.074Z,1002.5
2019-03-01T07:38:15.187Z,1002.5
2019-03-01T07:39:17.094Z,1002.5
2019-03-01T07:40:19.079Z,1002.5
2019-03-01T07:41:20.959Z,1002.6
2019-03-01T07:42:22.896Z,1002.6
2019-03-01T07:43:24.816Z,1002.6
2019-03-01T07:44:26.806Z,1002.7
2019-03-01T07:45:28.655Z,1002.6
2019-03-01T07:46:30.635Z,1002.7
2019-03-01T07:47:34.086Z,1002.6
2019-03-01T07:48:34.480Z,1002.7
2019-03-01T07:49:36.436Z,1002.7
2019-03-01T07:50:38.303Z,1002.6
2019-03-01T07:51:40.246Z,1002.7
2019-03-01T07:52:42.169Z,1002.7
2019-03-01T07:53:44.051Z,1002.7
2019-03-01T07:54:46.059Z,1002.7
2019-03-01T07:55:47.923Z,1002.7
2019-03-01T07:56:49.832Z,1002.7
2019-03-01T07:57:51.686Z,1002.7
2019-03-01T07:58:53.536Z,1002.8
2019-03-01T07:59:55.357Z,1002.8
2019-03-01T08:00:57.267Z,1002.8
2019-03-01T08:02:00.790Z,1002.8
2019-03-01T08:03:00.885Z,1002.8
2019-03-01T08:04:02.834Z,1002.8
2019-03-01T08:05:05.104Z,1002.8
2019-03-01T08:06:06.422Z,1002.9
2019-03-01T08:07:08.480Z,1002.9
2019-03-01T08:08:10.071Z,1002.9
2019-03-01T08:09:11.994Z,1002.9
2019-03-01T08:10:16.938Z,1003.0
2019-03-01T08:11:15.813Z,1002.9
2019-03-01T08:12:17.634Z,1002.9
2019-03-01T08:13:19.476Z,1003.0
2019-03-01T08:14:24.508Z,1002.9
2019-03-01T08:15:23.127Z,1003.0
2019-03-01T08:16:25.244Z,1003.0
2019-03-01T08:17:27.653Z,1003.0
2019-03-01T08:18:28.547Z,1003.0
2019-03-01T08:19:30.468Z,1003.0
2019-03-01T08:20:33.910Z,1003.0
2019-03-01T08:21:34.101Z,1003.0
2019-03-01T08:22:44.938Z,1003.1
2019-03-01T08:23:37.794Z,1003.1
2019-03-01T08:24:42.884Z,1003.1
2019-03-01T08:25:41.512Z,1003.1
2019-03-01T08:26:43.453Z,1003.1
2019-03-01T08:27:46.387Z,1003.1
2019-03-01T08:28:47.049Z,1003.1
2019-03-01T08:29:48.864Z,1003.1
2019-03-01T08:30:50.623Z,1003.1
2019-03-01T08:31:52.817Z,1003.1
2019-03-01T08:32:54.275Z,1003.2
2019-03-01T08:33:56.171Z,1003.2
2019-03-01T08:34:58.080Z,1003.2
2019-03-01T08:36:02.408Z,1003.2
2019-03-01T08:37:01.576Z,1003.2
2019-03-01T08:38:03.405Z,1003.2
2019-03-01T08:39:05.830Z,1003.2
2019-03-01T08:40:07.196Z,1003.2
2019-03-01T08:41:09.047Z,1003.2
2019-03-01T08:42:10.963Z,1003.2
2019-03-01T08:43:13.248Z,1003.3
2019-03-01T08:44:14.582Z,1003.3
2019-03-01T08:45:16.419Z,1003.3
2019-03-01T08:46:18.269Z,1003.3
2019-03-01T08:47:23.306Z,1003.4
2019-03-01T08:48:21.975Z,1003.4
2019-03-01T08:49:23.894Z,1003.4
2019-03-01T08:50:25.865Z,1003.4
2019-03-01T08:51:27.673Z,1003.5
2019-03-01T08:52:29.493Z,1003.5
2019-03-01T08:53:31.339Z,1003.4
2019-03-01T08:54:33.184Z,1003.4
2019-03-01T08:55:35.650Z,1003.5
2019-03-01T08:56:36.800Z,1003.5
2019-03-01T08:57:44.218Z,1003.4
2019-03-01T08:58:41.576Z,1003.5
2019-03-01T08:59:42.024Z,1003.5
2019-03-01T09:00:43.757Z,1003.6
2019-03-01T09:01:45.887Z,1003.5
2019-03-01T09:02:47.334Z,1003.6
2019-03-01T09:03:49.121Z,1003.6
2019-03-01T09:04:51.145Z,1003.5
2019-03-01T09:05:52.344Z,1003.5
2019-03-01T09:06:54.136Z,1003.6
2019-03-01T09:07:55.823Z,1003.6
2019-03-01T09:08:57.563Z,1003.6
2019-03-01T09:09:59.273Z,1003.6
2019-03-01T09:11:00.989Z,1003.6
2019-03-01T09:12:02.541Z,1003.6
2019-03-01T09:13:04.251Z,1003.6
2019-03-01T09:14:06.078Z,1003.5
2019-03-01T09:15:08.293Z,1003.6
2019-03-01T09:16:09.693Z,1003.6
2019-03-01T09:17:11.389Z,1003.6
2019-03-01T09:18:14.631Z,1003.6
2019-03-01T09:19:14.831Z,1003.7
2019-03-01T09:20:16.535Z,1003.6
2019-03-01T09:21:18.273Z,1003.7
2019-03-01T09:22:20.002Z,1003.7
2019-03-01T09:23:25.326Z,1003.7
2019-03-01T09:24:25.749Z,1003.7
2019-03-01T09:25:25.039Z,1003.7
2019-03-01T09:26:26.980Z,1003.7
2019-03-01T09:27:30.299Z,1003.7
2019-03-01T09:28:32.675Z,1003.6
2019-03-01T09:29:41.036Z,1003.7
2019-03-01T09:30:33.886Z,1003.7
2019-03-01T09:31:35.668Z,1003.7
2019-03-01T09:32:37.469Z,1003.7
2019-03-01T09:33:39.224Z,1003.7
2019-03-01T09:34:40.890Z,1003.7
2019-03-01T09:35:43.188Z,1003.8
2019-03-01T09:36:43.742Z,1003.7
2019-03-01T09:37:45.495Z,1003.8
2019-03-01T09:38:47.202Z,1003.8
2019-03-01T09:39:50.311Z,1003.8
2019-03-01T09:40:50.724Z,1003.9
2019-03-01T09:41:52.547Z,1003.8
2019-03-01T09:42:54.269Z,1003.9
2019-03-01T09:43:55.772Z,1003.9
2019-03-01T09:44:57.333Z,1003.9
2019-03-01T09:45:58.869Z,1003.9
2019-03-01T09:47:01.634Z,1004.0
2019-03-01T09:48:02.291Z,1004.0
2019-03-01T09:49:04.119Z,1004.0
2019-03-01T09:50:05.796Z,1004.0
2019-03-01T09:51:10.478Z,1004.0
2019-03-01T09:52:09.294Z,1004.0
2019-03-01T09:53:11.522Z,1004.0
2019-03-01T09:54:13.710Z,1004.0
2019-03-01T09:55:15.903Z,1004.0
2019-03-01T09:56:18.072Z,1004.0
2019-03-01T09:57:20.106Z,1004.1
2019-03-01T09:58:22.011Z,1004.1
2019-03-01T09:59:23.993Z,1004.0
2019-03-01T10:00:25.909Z,1004.1
2019-03-01T10:01:27.822Z,1004.1
2019-03-01T10:02:29.654Z,1004.1
2019-03-01T10:03:31.576Z,1004.1
2019-03-01T10:04:33.550Z,1004.1
2019-03-01T10:05:35.389Z,1004.1
2019-03-01T10:06:38.403Z,1004.2
2019-03-01T10:07:39.100Z,1004.1
2019-03-01T10:08:40.541Z,1004.2
2019-03-01T10:09:42.375Z,1004.2
2019-03-01T10:10:44.215Z,1004.2
2019-03-01T10:11:46.058Z,1004.2
2019-03-01T10:12:47.977Z,1004.2
2019-03-01T10:13:49.925Z,1004.2
2019-03-01T10:14:52.004Z,1004.2
2019-03-01T10:15:54.147Z,1004.2
2019-03-01T10:16:56.246Z,1004.2
2019-03-01T10:17:58.505Z,1004.2
2019-03-01T10:19:00.605Z,1004.3
2019-03-01T10:20:02.603Z,1004.2
2019-03-01T10:21:04.552Z,1004.3
2019-03-01T10:22:06.588Z,1004.3
2019-03-01T10:23:08.719Z,1004.3
2019-03-01T10:24:10.811Z,1004.3
2019-03-01T10:25:13.086Z,1004.3
2019-03-01T10:26:15.111Z,1004.2
2019-03-01T10:27:17.250Z,1004.3
2019-03-01T10:28:19.376Z,1004.3
2019-03-01T10:29:21.453Z,1004.3
2019-03-01T10:30:23.505Z,1004.3
2019-03-01T10:31:25.687Z,1004.4
2019-03-01T10:32:27.664Z,1004.4
2019-03-01T10:33:29.602Z,1004.4
2019-03-01T10:34:31.667Z,1004.4
2019-03-01T10:35:33.564Z,1004.4
2019-03-01T10:36:35.525Z,1004.4
2019-03-01T10:37:37.510Z,1004.4
2019-03-01T10:38:39.630Z,1004.5
2019-03-01T10:39:41.675Z,1004.5
2019-03-01T10:40:43.701Z,1004.5
2019-03-01T10:41:45.685Z,1004.5
2019-03-01T10:42:47.701Z,1004.5
2019-03-01T10:43:49.776Z,1004.5
2019-03-01T10:44:51.783Z,1004.6
2019-03-01T10:45:53.863Z,1004.6
2019-03-01T10:46:55.982Z,1004.6
2019-03-01T10:47:58.099Z,1004.6
2019-03-01T10:49:00.246Z,1004.6
2019-03-01T10:50:02.357Z,1004.7
2019-03-01T10:51:04.435Z,1004.7
2019-03-01T10:52:06.475Z,1004.7
2019-03-01T10:53:08.548Z,1004.7
2019-03-01T10:54:10.629Z,1004.7
2019-03-01T10:55:12.746Z,1004.8
2019-03-01T10:56:14.903Z,1004.8
2019-03-01T10:57:17.145Z,1004.8
2019-03-01T10:58:19.158Z,1004.8
2019-03-01T10:59:20.997Z,1004.8
2019-03-01T11:00:23.079Z,1004.8
2019-03-01T11:01:25.138Z,1004.8
2019-03-01T11:02:27.136Z,1004.8
2019-03-01T11:03:29.021Z,1004.8
2019-03-01T11:04:30.951Z,1004.9
2019-03-01T11:05:32.906Z,1004.9
2019-03-01T11:06:34.820Z,1004.8
2019-03-01T11:07:36.780Z,1004.9
2019-03-01T11:08:38.448Z,1004.9
2019-03-01T11:09:40.432Z,1004.9
2019-03-01T11:10:42.417Z,1004.9
2019-03-01T11:11:44.353Z,1005.0
2019-03-01T11:12:46.305Z,1005.0
2019-03-01T11:13:48.095Z,1005.0
2019-03-01T11:14:49.981Z,1005.0
2019-03-01T11:15:51.920Z,1005.0
2019-03-01T11:16:55.335Z,1005.0
2019-03-01T11:17:55.737Z,1005.0
2019-03-01T11:18:57.679Z,1005.0
2019-03-01T11:19:59.592Z,1005.0
2019-03-01T11:21:01.576Z,1005.0
2019-03-01T11:22:03.633Z,1005.0
2019-03-01T11:23:05.700Z,1005.0
2019-03-01T11:24:07.620Z,1005.0
2019-03-01T11:25:09.660Z,1005.0
2019-03-01T11:26:11.757Z,1005.1
2019-03-01T11:27:13.736Z,1005.1
2019-03-01T11:28:15.670Z,1005.1
2019-03-01T11:29:17.727Z,1005.1
2019-03-01T11:30:19.730Z,1005.1
2019-03-01T11:31:21.668Z,1005.1
2019-03-01T11:32:23.676Z,1005.1
2019-03-01T11:33:25.565Z,1005.1
2019-03-01T11:34:27.635Z,1005.1
2019-03-01T11:35:29.662Z,1005.1
2019-03-01T11:36:31.667Z,1005.1
2019-03-01T11:37:33.543Z,1005.1
2019-03-01T11:38:35.533Z,1005.1
2019-03-01T11:39:37.562Z,1005.1
2019-03-01T11:40:39.432Z,1005.2
2019-03-01T11:41:41.405Z,1005.2
2019-03-01T11:42:43.352Z,1005.2
2019-03-01T11:43:45.571Z,1005.2
2019-03-01T11:44:47.866Z,1005.2
2019-03-01T11:45:49.666Z,1005.2
2019-03-01T11:46:51.616Z,1005.2
2019-03-01T11:47:53.463Z,1005.2
2019-03-01T11:48:56.165Z,1005.3
2019-03-01T11:49:59.111Z,1005.3
2019-03-01T11:51:01.824Z,1005.3
2019-03-01T11:52:04.649Z,1005.3
2019-03-01T11:53:07.456Z,1005.3
2019-03-01T11:54:09.363Z,1005.3
2019-03-01T11:55:12.133Z,1005.4
2019-03-01T11:56:15.092Z,1005.4
2019-03-01T11:57:16.884Z,1005.3
2019-03-01T11:58:18.807Z,1005.4
2019-03-01T11:59:20.670Z,1005.3
2019-03-01T12:00:22.608Z,1005.4
2019-03-01T12:01:24.516Z,1005.4
2019-03-01T12:02:26.535Z,1005.4
2019-03-01T12:03:28.295Z,1005.4
2019-03-01T12:04:30.476Z,1005.4
2019-03-01T12:05:32.455Z,1005.4
2019-03-01T12:06:34.248Z,1005.4
2019-03-01T12:07:36.151Z,1005.4
2019-03-01T12:08:38.134Z,1005.4
2019-03-01T12:09:40.058Z,1005.4
2019-03-01T12:10:41.857Z,1005.4
2019-03-01T12:11:43.728Z,1005.5
2019-03-01T12:12:45.698Z,1005.4
2019-03-01T12:13:47.418Z,1005.4
2019-03-01T12:14:49.224Z,1005.5
2019-03-01T12:15:51.116Z,1005.5
2019-03-01T12:16:52.856Z,1005.5
2019-03-01T12:17:54.751Z,1005.5
2019-03-01T12:18:56.688Z,1005.5
2019-03-01T12:19:58.539Z,1005.5
2019-03-01T12:21:00.484Z,1005.5
2019-03-01T12:22:02.442Z,1005.4
2019-03-01T12:23:04.364Z,1005.5
2019-03-01T12:24:06.184Z,1005.5
2019-03-01T12:25:08.110Z,1005.5
2019-03-01T12:26:10.016Z,1005.5
2019-03-01T12:27:11.896Z,1005.5
2019-03-01T12:28:13.687Z,1005.5
2019-03-01T12:29:15.596Z,1005.5
2019-03-01T12:30:17.463Z,1005.6
2019-03-01T12:31:19.394Z,1005.5
2019-03-01T12:32:21.306Z,1005.6
2019-03-01T12:33:23.045Z,1005.6
2019-03-01T12:34:24.903Z,1005.6
2019-03-01T12:35:26.684Z,1005.6
2019-03-01T12:36:28.617Z,1005.6
2019-03-01T12:37:30.236Z,1005.6
2019-03-01T12:38:32.012Z,1005.7
2019-03-01T12:39:33.759Z,1005.7
2019-03-01T12:40:35.602Z,1005.7
2019-03-01T12:41:37.443Z,1005.8
2019-03-01T12:42:39.316Z,1005.8
2019-03-01T12:43:41.017Z,1005.8
2019-03-01T12:44:42.516Z,1005.8
2019-03-01T12:45:44.259Z,1005.9
2019-03-01T12:46:45.828Z,1005.9
2019-03-01T12:47:47.545Z,1006.0
2019-03-01T12:48:49.400Z,1006.0
2019-03-01T12:49:51.364Z,1006.0
2019-03-01T12:50:53.017Z,1006.0